Time;durP1;ratioP1;P1;durP2;ratioP2;P2;SDS_P1;SDS_P2;PMS_P1;PMS_P2;Temp;Humidity;BMP_temperature;BMP_pressure;BME280_temperature;BME280_humidity;BME280_pressure;Samples;Min_cycle;Max_cycle;Signal;HPM_P1;HPM_P2
2023/04/07 00:00:12;;;;;;;56.53;36.83;;;2.70;66.30;;;;;;4690017;29;115604;-82
2023/04/07 00:02:41;;;;;;;55.80;34.50;;;2.70;66.40;;;;;;4720500;29;115869;-83
2023/04/07 00:05:10;;;;;;;54.83;35.13;;;2.60;66.30;;;;;;4705534;29;114990;-84
2023/04/07 00:07:37;;;;;;;59.47;36.47;;;2.70;66.40;;;;;;4720208;29;116241;-83
2023/04/07 00:10:21;;;;;;;55.70;35.15;;;2.70;66.30;;;;;;4720443;29;115287;-83
2023/04/07 00:12:49;;;;;;;53.53;34.92;;;2.60;66.30;;;;;;4720250;29;114848;-83
2023/04/07 00:15:16;;;;;;;56.38;34.42;;;2.70;66.40;;;;;;4721350;29;114570;-84
2023/04/07 00:17:43;;;;;;;59.88;36.10;;;2.70;66.30;;;;;;4719449;29;114716;-81
2023/04/07 00:20:11;;;;;;;53.85;33.83;;;2.70;66.30;;;;;;4703961;29;117883;-82
2023/04/07 00:22:38;;;;;;;58.10;35.08;;;2.70;66.30;;;;;;4720642;29;114745;-81
2023/04/07 00:25:07;;;;;;;54.13;35.15;;;2.70;66.40;;;;;;4705469;29;115825;-82
2023/04/07 00:27:34;;;;;;;57.33;36.88;;;2.70;66.50;;;;;;4705794;29;114751;-82
2023/04/07 00:30:03;;;;;;;59.45;37.33;;;2.70;66.50;;;;;;4719054;29;115483;-83
2023/04/07 00:32:30;;;;;;;58.38;36.75;;;2.70;66.50;;;;;;4719756;29;114975;-83
2023/04/07 00:34:59;;;;;;;62.50;37.08;;;2.70;66.50;;;;;;4720438;29;114575;-83
2023/04/07 00:37:30;;;;;;;63.70;36.30;;;2.70;66.50;;;;;;4721501;29;114873;-83
2023/04/07 00:39:58;;;;;;;64.57;37.35;;;2.70;66.50;;;;;;4720478;29;115177;-82
2023/04/07 00:42:25;;;;;;;66.90;40.53;;;2.70;66.50;;;;;;4721529;29;115225;-83
2023/04/07 00:44:52;;;;;;;67.00;37.35;;;2.70;66.50;;;;;;4718950;29;114711;-83
2023/04/07 00:47:20;;;;;;;77.30;41.55;;;2.70;66.60;;;;;;4696782;29;114557;-83
2023/04/07 00:49:48;;;;;;;75.68;41.35;;;2.70;66.60;;;;;;4707429;29;115462;-83
2023/04/07 00:52:15;;;;;;;79.78;43.13;;;2.70;66.60;;;;;;4691862;29;115901;-83
2023/04/07 00:54:42;;;;;;;79.57;42.42;;;2.70;66.60;;;;;;4707093;29;114675;-82
2023/04/07 00:57:10;;;;;;;83.45;43.50;;;2.60;66.50;;;;;;4680912;29;114774;-84
2023/04/07 00:59:39;;;;;;;81.43;43.15;;;2.70;66.50;;;;;;4685539;29;117439;-83
2023/04/07 01:02:31;;;;;;;83.45;43.55;;;2.70;66.60;;;;;;4722415;29;115385;-84
2023/04/07 01:05:11;;;;;;;79.43;42.35;;;2.70;66.70;;;;;;4692712;29;114669;-83
2023/04/07 01:08:14;;;;;;;81.20;44.45;;;2.70;66.70;;;;;;4720192;29;114979;-83
2023/04/07 01:11:00;;;;;;;79.70;44.10;;;2.70;66.50;;;;;;4681211;29;115348;-84
2023/04/07 01:13:43;;;;;;;79.80;42.58;;;2.70;66.70;;;;;;4674988;29;115581;-84
2023/04/07 01:16:31;;;;;;;79.82;42.70;;;2.70;66.70;;;;;;4696888;29;114956;-83
2023/04/07 01:19:32;;;;;;;72.38;39.22;;;2.70;66.80;;;;;;4688319;29;114807;-84
2023/04/07 01:22:00;;;;;;;81.50;41.90;;;2.70;66.90;;;;;;4712841;29;115331;-83
2023/04/07 01:25:08;;;;;;;80.05;42.58;;;2.60;66.60;;;;;;4676258;29;115035;-83
2023/04/07 01:28:06;;;;;;;70.50;39.78;;;2.60;66.80;;;;;;4703373;29;114612;-84
2023/04/07 01:30:36;;;;;;;81.70;42.80;;;2.60;66.80;;;;;;4693335;29;114549;-83
2023/04/07 01:33:03;;;;;;;72.35;40.28;;;2.60;66.80;;;;;;4660816;29;115319;-83
2023/04/07 01:35:33;;;;;;;67.75;38.28;;;2.60;66.90;;;;;;4688768;29;116079;-84
2023/04/07 01:38:01;;;;;;;71.32;41.10;;;2.60;67.00;;;;;;4675457;29;114952;-83
2023/04/07 01:40:29;;;;;;;75.05;41.85;;;2.70;66.90;;;;;;4690171;29;115091;-83
2023/04/07 01:42:56;;;;;;;72.30;39.90;;;2.70;66.90;;;;;;4688316;29;115532;-83
2023/04/07 01:45:23;;;;;;;72.72;41.65;;;2.70;66.90;;;;;;4688822;29;114866;-82
2023/04/07 01:47:51;;;;;;;65.95;38.88;;;2.70;66.90;;;;;;4690955;29;114639;-83
2023/04/07 01:50:18;;;;;;;70.20;39.33;;;2.70;66.80;;;;;;4689698;29;115152;-82
2023/04/07 01:52:45;;;;;;;63.67;37.42;;;2.70;66.90;;;;;;4670041;29;115130;-82
2023/04/07 01:55:13;;;;;;;62.33;37.33;;;2.70;66.90;;;;;;4677856;29;114644;-82
2023/04/07 01:57:49;;;;;;;64.15;37.33;;;2.70;66.90;;;;;;4723299;29;114540;-82
2023/04/07 02:00:18;;;;;;;62.95;36.90;;;2.70;66.90;;;;;;4720665;29;116538;-82
2023/04/07 02:02:54;;;;;;;59.60;36.40;;;2.70;67.10;;;;;;4705557;29;117592;-82
2023/04/07 02:05:22;;;;;;;63.08;36.95;;;2.70;67.00;;;;;;4671889;29;114936;-83
2023/04/07 02:07:51;;;;;;;56.40;34.33;;;2.60;67.00;;;;;;4693691;29;114567;-81
2023/04/07 02:10:22;;;;;;;60.50;37.05;;;2.70;67.20;;;;;;4709631;29;114647;-82
2023/04/07 02:12:52;;;;;;;60.13;37.70;;;2.60;67.10;;;;;;4695949;29;117649;-81
2023/04/07 02:15:19;;;;;;;61.60;37.08;;;2.60;67.00;;;;;;4707074;29;115018;-81
2023/04/07 02:17:50;;;;;;;58.10;35.67;;;2.60;67.10;;;;;;4692555;29;114967;-82
2023/04/07 02:20:18;;;;;;;57.15;36.05;;;2.60;67.20;;;;;;4692494;29;115954;-82
2023/04/07 02:22:45;;;;;;;64.60;37.20;;;2.50;67.20;;;;;;4675518;29;116793;-83
2023/04/07 02:25:29;;;;;;;58.75;36.40;;;2.50;67.20;;;;;;4694130;29;116334;-83
2023/04/07 02:27:58;;;;;;;57.60;34.30;;;2.50;67.60;;;;;;4694822;29;114704;-83
2023/04/07 02:30:27;;;;;;;57.70;36.13;;;2.50;67.40;;;;;;4694681;29;114629;-82
2023/04/07 02:32:55;;;;;;;58.55;34.28;;;2.40;67.50;;;;;;4707814;29;115334;-83
2023/04/07 02:35:23;;;;;;;58.15;35.22;;;2.40;67.50;;;;;;4706747;29;114743;-82
2023/04/07 02:37:52;;;;;;;61.80;37.00;;;2.50;67.60;;;;;;4692658;29;114697;-83
2023/04/07 02:40:20;;;;;;;55.55;33.88;;;2.50;67.60;;;;;;4693682;29;114726;-82
2023/04/07 02:42:47;;;;;;;64.70;35.90;;;2.50;67.60;;;;;;4692334;29;115914;-82
2023/04/07 02:45:14;;;;;;;61.55;35.33;;;2.50;67.70;;;;;;4692258;29;114907;-82
2023/04/07 02:47:42;;;;;;;59.83;34.97;;;2.50;67.70;;;;;;4722262;29;114846;-83
2023/04/07 02:50:10;;;;;;;57.85;36.33;;;2.50;67.70;;;;;;4707520;29;114978;-82
2023/04/07 02:52:37;;;;;;;55.60;34.92;;;2.50;67.70;;;;;;4721820;29;115474;-82
2023/04/07 02:55:10;;;;;;;56.03;34.80;;;2.50;67.70;;;;;;4721288;29;115045;-82
2023/04/07 02:57:38;;;;;;;55.55;34.70;;;2.50;67.60;;;;;;4706732;29;114800;-82
2023/04/07 03:00:11;;;;;;;53.10;33.75;;;2.50;67.60;;;;;;4722853;29;114600;-82
2023/04/07 03:03:05;;;;;;;56.78;34.50;;;2.60;67.70;;;;;;4728642;29;114386;-82
2023/04/07 03:05:38;;;;;;;56.88;34.35;;;2.50;67.60;;;;;;4706324;29;115579;-82
2023/04/07 03:08:08;;;;;;;55.13;34.13;;;2.60;67.70;;;;;;4722076;29;114641;-82
2023/04/07 03:10:38;;;;;;;57.25;35.25;;;2.50;67.80;;;;;;4722255;29;114716;-82
2023/04/07 03:13:07;;;;;;;58.65;36.47;;;2.60;67.80;;;;;;4707335;29;116281;-83
2023/04/07 03:15:36;;;;;;;52.33;33.47;;;2.60;67.80;;;;;;4702779;29;114657;-84
2023/04/07 03:18:04;;;;;;;52.42;33.22;;;2.60;67.90;;;;;;4705257;29;114485;-83
2023/04/07 03:20:32;;;;;;;57.85;35.55;;;2.60;67.80;;;;;;4706330;29;114614;-83
2023/04/07 03:23:07;;;;;;;54.75;33.15;;;2.70;67.90;;;;;;4705388;29;115325;-82
2023/04/07 03:25:34;;;;;;;58.58;35.33;;;2.60;67.90;;;;;;4692730;29;114931;-81
2023/04/07 03:28:02;;;;;;;59.92;36.03;;;2.70;67.80;;;;;;4689704;29;115178;-82
2023/04/07 03:30:33;;;;;;;56.00;34.80;;;2.60;67.80;;;;;;4691857;29;114550;-82
2023/04/07 03:33:01;;;;;;;59.53;35.00;;;2.60;67.80;;;;;;4704792;29;115149;-83
2023/04/07 03:35:30;;;;;;;56.53;34.90;;;2.60;67.90;;;;;;4703281;29;114927;-83
2023/04/07 03:37:58;;;;;;;55.85;32.03;;;2.60;67.90;;;;;;4690527;29;115161;-83
2023/04/07 03:40:25;;;;;;;57.72;33.53;;;2.60;68.00;;;;;;4705478;29;116232;-84
2023/04/07 03:42:53;;;;;;;62.15;36.80;;;2.60;68.00;;;;;;4674554;29;115296;-83
2023/04/07 03:45:21;;;;;;;55.58;34.47;;;2.60;68.00;;;;;;4704023;29;114824;-84
2023/04/07 03:47:52;;;;;;;57.97;33.78;;;2.60;68.00;;;;;;4674891;29;114886;-83
2023/04/07 03:50:21;;;;;;;58.75;34.65;;;2.60;68.00;;;;;;4704449;29;114948;-82
2023/04/07 03:53:00;;;;;;;60.38;35.03;;;2.60;68.00;;;;;;4691743;29;115982;-83
2023/04/07 03:55:32;;;;;;;58.03;34.78;;;2.60;68.00;;;;;;4656956;29;114798;-81
2023/04/07 03:58:07;;;;;;;63.03;36.80;;;2.60;68.00;;;;;;4654888;29;115628;-82
2023/04/07 04:00:36;;;;;;;62.97;38.00;;;2.60;67.90;;;;;;4692103;29;114559;-82
2023/04/07 04:03:07;;;;;;;57.28;33.30;;;2.60;67.90;;;;;;4704449;29;115321;-82
2023/04/07 04:05:40;;;;;;;57.65;34.00;;;2.60;67.90;;;;;;4688199;29;116048;-82
2023/04/07 04:08:10;;;;;;;59.97;35.85;;;2.60;67.90;;;;;;4648387;29;114854;-82
2023/04/07 04:10:39;;;;;;;50.67;31.10;;;2.60;67.90;;;;;;4706382;29;114598;-82
2023/04/07 04:13:08;;;;;;;54.35;34.00;;;2.60;68.00;;;;;;4690080;29;115208;-82
2023/04/07 04:15:36;;;;;;;58.67;34.58;;;2.60;68.00;;;;;;4702837;29;115793;-82
2023/04/07 04:18:07;;;;;;;57.45;33.47;;;2.60;68.00;;;;;;4683726;30;114880;-83
2023/04/07 04:20:36;;;;;;;55.75;33.58;;;2.60;68.00;;;;;;4703361;29;115106;-82
2023/04/07 04:23:04;;;;;;;55.78;32.53;;;2.60;68.10;;;;;;4703447;29;117474;-83
2023/04/07 04:25:33;;;;;;;58.75;33.70;;;2.60;68.00;;;;;;4702048;29;114820;-83
2023/04/07 04:28:04;;;;;;;56.10;33.65;;;2.60;68.10;;;;;;4691450;29;114601;-83
2023/04/07 04:30:35;;;;;;;57.45;34.38;;;2.60;68.00;;;;;;4688860;29;114536;-83
2023/04/07 04:33:06;;;;;;;57.83;34.13;;;2.60;68.00;;;;;;4688497;29;115665;-83
2023/04/07 04:35:42;;;;;;;56.05;33.65;;;2.60;68.10;;;;;;4690430;29;115136;-84
2023/04/07 04:38:13;;;;;;;53.03;31.92;;;2.60;68.00;;;;;;4675700;29;115012;-83
2023/04/07 04:40:46;;;;;;;56.00;33.88;;;2.60;68.10;;;;;;4691496;29;115235;-82
2023/04/07 04:43:16;;;;;;;57.20;35.20;;;2.60;68.00;;;;;;4688541;29;116199;-82
2023/04/07 04:45:44;;;;;;;55.20;31.52;;;2.60;68.00;;;;;;4653569;30;115316;-82
2023/04/07 04:48:14;;;;;;;54.22;31.58;;;2.60;68.10;;;;;;4697176;29;114647;-82
2023/04/07 04:50:42;;;;;;;54.47;33.20;;;2.60;68.10;;;;;;4708304;29;114665;-83
2023/04/07 04:53:11;;;;;;;57.47;34.90;;;2.60;68.10;;;;;;4691284;29;118213;-83
2023/04/07 04:55:50;;;;;;;52.72;33.35;;;2.60;68.20;;;;;;4705577;29;114903;-83
2023/04/07 04:58:23;;;;;;;55.00;33.63;;;2.60;68.20;;;;;;4693360;29;114719;-83
2023/04/07 05:00:59;;;;;;;52.15;32.53;;;2.60;68.20;;;;;;4670214;29;118426;-83
2023/04/07 05:03:35;;;;;;;51.08;32.75;;;2.70;68.30;;;;;;4692142;29;115388;-83
2023/04/07 05:06:10;;;;;;;53.30;32.45;;;2.60;68.20;;;;;;4704696;29;114976;-83
2023/04/07 05:08:37;;;;;;;52.33;30.92;;;2.70;68.10;;;;;;4693565;29;114622;-83
2023/04/07 05:11:05;;;;;;;53.75;32.67;;;2.70;68.10;;;;;;4704643;29;114695;-83
2023/04/07 05:13:34;;;;;;;51.00;30.80;;;2.70;68.10;;;;;;4705199;29;117641;-83
2023/04/07 05:16:05;;;;;;;50.63;31.10;;;2.70;68.10;;;;;;4706083;29;114739;-83
2023/04/07 05:18:34;;;;;;;51.35;30.85;;;2.70;68.10;;;;;;4687335;29;114617;-83
2023/04/07 05:21:04;;;;;;;51.03;32.08;;;2.70;68.10;;;;;;4722655;29;114661;-84
2023/04/07 05:23:35;;;;;;;49.47;31.23;;;2.70;68.10;;;;;;4701412;29;115235;-83
2023/04/07 05:26:04;;;;;;;49.70;30.95;;;2.70;68.10;;;;;;4693868;29;115715;-83
2023/04/07 05:28:31;;;;;;;50.40;32.15;;;2.70;68.10;;;;;;4724895;29;115205;-83
2023/04/07 05:31:03;;;;;;;48.40;28.98;;;2.70;68.00;;;;;;4716547;29;114561;-84
2023/04/07 05:33:35;;;;;;;46.90;30.17;;;2.70;68.00;;;;;;4715330;29;115620;-83
2023/04/07 05:36:03;;;;;;;47.55;29.98;;;2.70;68.00;;;;;;4695953;29;116932;-83
2023/04/07 05:38:31;;;;;;;45.67;28.45;;;2.70;68.00;;;;;;4728126;29;114841;-83
2023/04/07 05:41:06;;;;;;;45.55;28.83;;;2.70;68.00;;;;;;4708610;29;114860;-82
2023/04/07 05:43:35;;;;;;;42.17;27.58;;;2.70;68.10;;;;;;4684514;29;115301;-83
2023/04/07 05:46:05;;;;;;;44.50;27.10;;;2.70;68.10;;;;;;4713549;29;118908;-82
2023/04/07 05:48:36;;;;;;;46.30;27.52;;;2.70;68.30;;;;;;4721526;29;114628;-83
2023/04/07 05:51:04;;;;;;;38.88;25.80;;;2.70;68.20;;;;;;4729462;29;114626;-83
2023/04/07 05:53:31;;;;;;;42.50;26.67;;;2.70;68.10;;;;;;4684788;29;116544;-83
2023/04/07 05:55:59;;;;;;;43.10;26.50;;;2.70;68.10;;;;;;4713341;29;115198;-82
2023/04/07 05:58:40;;;;;;;45.42;27.20;;;2.70;68.00;;;;;;4710810;29;114999;-83
2023/04/07 06:01:09;;;;;;;46.85;28.60;;;2.70;68.00;;;;;;4718957;29;114854;-83
2023/04/07 06:03:39;;;;;;;45.13;27.88;;;2.70;67.90;;;;;;4692128;29;116405;-83
2023/04/07 06:06:20;;;;;;;46.38;28.15;;;2.80;68.10;;;;;;4713047;29;116537;-82
2023/04/07 06:08:47;;;;;;;41.95;26.35;;;2.70;68.10;;;;;;4681622;29;117147;-82
2023/04/07 06:11:15;;;;;;;48.05;28.73;;;2.70;68.10;;;;;;4716025;29;119428;-83
2023/04/07 06:13:42;;;;;;;40.95;26.33;;;2.70;68.10;;;;;;4695427;29;115379;-83
2023/04/07 06:16:09;;;;;;;40.75;26.65;;;2.80;68.10;;;;;;4719529;29;114790;-82
2023/04/07 06:18:37;;;;;;;40.58;26.60;;;2.70;68.00;;;;;;4693911;29;114944;-82
2023/04/07 06:21:06;;;;;;;37.53;25.60;;;2.80;68.00;;;;;;4676165;29;114683;-82
2023/04/07 06:23:34;;;;;;;46.10;28.30;;;2.80;68.10;;;;;;4722813;29;118614;-85
2023/04/07 06:26:06;;;;;;;50.20;30.05;;;2.80;69.00;;;;;;4704881;29;116710;-82
2023/04/07 06:28:34;;;;;;;44.28;27.92;;;2.90;69.40;;;;;;4707036;29;114591;-83
2023/04/07 06:31:01;;;;;;;42.88;28.27;;;2.90;69.30;;;;;;4722036;29;115171;-83
2023/04/07 06:33:30;;;;;;;39.58;25.20;;;2.90;69.30;;;;;;4701590;29;117769;-82
2023/04/07 06:36:01;;;;;;;37.53;25.30;;;2.90;68.90;;;;;;4682995;29;117077;-83
2023/04/07 06:38:29;;;;;;;38.05;24.77;;;2.90;68.60;;;;;;4715464;29;114856;-81
2023/04/07 06:40:59;;;;;;;40.97;26.30;;;2.90;68.50;;;;;;4681381;29;115092;-83
2023/04/07 06:43:26;;;;;;;39.33;26.73;;;3.00;68.40;;;;;;4678117;29;116608;-83
2023/04/07 06:46:01;;;;;;;38.08;25.30;;;3.00;68.40;;;;;;4712417;29;116503;-83
2023/04/07 06:48:29;;;;;;;38.42;25.55;;;3.00;68.30;;;;;;4718259;29;114828;-84
2023/04/07 06:50:56;;;;;;;41.85;26.33;;;3.10;68.30;;;;;;4700191;29;114672;-82
2023/04/07 06:53:23;;;;;;;37.55;25.25;;;3.10;68.30;;;;;;4720865;29;116185;-82
2023/04/07 06:56:01;;;;;;;41.65;26.15;;;3.10;68.30;;;;;;4694471;29;116524;-82
2023/04/07 06:58:28;;;;;;;38.50;25.02;;;3.10;68.20;;;;;;4711737;29;114569;-81
2023/04/07 07:00:56;;;;;;;37.30;25.10;;;3.20;68.10;;;;;;4695856;29;114471;-82
2023/04/07 07:03:26;;;;;;;40.83;27.13;;;3.20;68.10;;;;;;4709536;29;115385;-81
2023/04/07 07:05:57;;;;;;;37.85;24.15;;;3.20;68.00;;;;;;4710681;29;114825;-81
2023/04/07 07:08:25;;;;;;;37.42;23.83;;;3.20;67.80;;;;;;4711770;29;116129;-81
2023/04/07 07:10:52;;;;;;;38.78;25.65;;;3.20;67.80;;;;;;4696585;29;114488;-81
2023/04/07 07:13:22;;;;;;;37.40;23.60;;;3.20;67.90;;;;;;4727435;29;115946;-82
2023/04/07 07:15:51;;;;;;;35.95;23.48;;;3.20;67.90;;;;;;4727635;29;115070;-81
2023/04/07 07:18:19;;;;;;;38.63;23.60;;;3.20;67.90;;;;;;4727367;29;114680;-82
2023/04/07 07:20:46;;;;;;;39.30;25.38;;;3.30;67.80;;;;;;4723773;29;114508;-82
2023/04/07 07:23:14;;;;;;;39.10;26.40;;;3.30;67.80;;;;;;4728052;29;115872;-82
2023/04/07 07:25:41;;;;;;;37.40;25.45;;;3.30;67.80;;;;;;4728668;29;115435;-82
2023/04/07 07:28:09;;;;;;;38.63;25.55;;;3.30;67.90;;;;;;4728599;29;115475;-82
2023/04/07 07:30:38;;;;;;;34.88;23.73;;;3.40;67.70;;;;;;4714767;29;114819;-82
2023/04/07 07:33:11;;;;;;;35.45;24.02;;;3.30;67.70;;;;;;4728665;29;115556;-82
2023/04/07 07:35:42;;;;;;;34.03;23.88;;;3.30;67.70;;;;;;4730238;29;114920;-82
2023/04/07 07:38:10;;;;;;;34.80;24.25;;;3.30;67.80;;;;;;4715139;29;114513;-82
2023/04/07 07:40:37;;;;;;;36.90;24.55;;;3.30;67.80;;;;;;4731574;29;114761;-82
2023/04/07 07:43:05;;;;;;;33.60;22.02;;;3.30;67.80;;;;;;4731650;29;115177;-82
2023/04/07 07:45:32;;;;;;;33.38;23.58;;;3.40;67.90;;;;;;4730625;29;114773;-82
2023/04/07 07:47:59;;;;;;;34.75;24.27;;;3.40;67.90;;;;;;4730459;29;114419;-83
2023/04/07 07:50:27;;;;;;;36.28;24.42;;;3.40;67.90;;;;;;4729657;29;114424;-82
2023/04/07 07:52:55;;;;;;;35.75;24.27;;;3.50;67.90;;;;;;4728572;29;115578;-82
2023/04/07 07:55:22;;;;;;;37.65;24.45;;;3.50;67.90;;;;;;4729478;29;114688;-82
2023/04/07 07:57:50;;;;;;;36.20;24.33;;;3.50;67.80;;;;;;4714199;29;115629;-82
2023/04/07 08:00:18;;;;;;;39.72;26.38;;;3.50;67.80;;;;;;4728467;29;114685;-82
2023/04/07 08:02:45;;;;;;;38.28;24.52;;;3.50;67.80;;;;;;4710816;29;115324;-82
2023/04/07 08:05:12;;;;;;;34.35;23.67;;;3.50;67.80;;;;;;4726997;29;114891;-84
2023/04/07 08:07:41;;;;;;;36.47;23.85;;;3.60;67.70;;;;;;4698334;29;114759;-82
2023/04/07 08:10:09;;;;;;;36.50;24.33;;;3.60;67.60;;;;;;4711703;29;114844;-82
2023/04/07 08:12:36;;;;;;;39.28;25.63;;;3.60;67.60;;;;;;4726120;29;114980;-83
2023/04/07 08:15:06;;;;;;;39.72;26.80;;;3.60;67.60;;;;;;4726283;29;117181;-82
2023/04/07 08:17:34;;;;;;;39.38;26.13;;;3.70;67.50;;;;;;4726849;29;114630;-82
2023/04/07 08:20:02;;;;;;;38.72;25.75;;;3.60;67.50;;;;;;4697755;29;114948;-82
2023/04/07 08:22:30;;;;;;;40.70;25.90;;;3.70;67.50;;;;;;4706537;29;115251;-83
2023/04/07 08:24:57;;;;;;;38.88;25.23;;;3.70;67.50;;;;;;4708919;29;114994;-83
2023/04/07 08:27:24;;;;;;;39.25;26.40;;;3.70;67.50;;;;;;4708782;29;114613;-83
2023/04/07 08:30:03;;;;;;;37.20;25.08;;;3.70;67.40;;;;;;4708682;29;114476;-83
2023/04/07 08:32:43;;;;;;;41.00;25.77;;;3.80;67.50;;;;;;4692001;29;115394;-83
2023/04/07 08:35:11;;;;;;;36.53;23.10;;;3.80;67.50;;;;;;4705894;29;114647;-83
2023/04/07 08:37:39;;;;;;;39.03;25.02;;;3.80;67.50;;;;;;4678201;29;114913;-83
2023/04/07 08:40:08;;;;;;;38.97;25.63;;;3.80;67.50;;;;;;4663828;29;114581;-82
2023/04/07 08:42:39;;;;;;;41.42;24.92;;;3.80;67.50;;;;;;4690687;29;115180;-83
2023/04/07 08:45:08;;;;;;;41.55;24.88;;;3.90;67.30;;;;;;4677032;29;114638;-83
2023/04/07 08:47:36;;;;;;;38.20;24.27;;;3.90;67.20;;;;;;4707319;29;114570;-83
2023/04/07 08:50:07;;;;;;;36.85;24.27;;;3.90;67.20;;;;;;4691136;29;114770;-83
2023/04/07 08:52:50;;;;;;;38.25;24.73;;;3.80;67.10;;;;;;4689642;29;115432;-83
2023/04/07 08:55:17;;;;;;;36.15;22.92;;;3.80;67.00;;;;;;4706039;29;116132;-83
2023/04/07 08:57:45;;;;;;;36.92;24.63;;;3.70;67.10;;;;;;4676515;29;114562;-83
2023/04/07 09:00:12;;;;;;;39.10;24.42;;;3.70;67.30;;;;;;4675408;29;114511;-83
2023/04/07 09:02:46;;;;;;;34.88;23.52;;;3.70;67.40;;;;;;4705304;29;114572;-83
2023/04/07 09:05:14;;;;;;;32.95;21.30;;;3.70;67.40;;;;;;4674427;29;114717;-83
2023/04/07 09:07:44;;;;;;;33.42;21.77;;;3.70;67.50;;;;;;4705854;29;114541;-82
2023/04/07 09:10:11;;;;;;;33.00;21.30;;;3.70;67.40;;;;;;4706863;29;114809;-83
2023/04/07 09:12:41;;;;;;;32.13;21.25;;;3.80;67.40;;;;;;4704955;29;115239;-83
2023/04/07 09:15:09;;;;;;;31.60;20.42;;;3.80;67.60;;;;;;4675298;29;114720;-83
2023/04/07 09:17:37;;;;;;;32.83;22.52;;;3.80;67.40;;;;;;4676278;29;118800;-83
2023/04/07 09:20:05;;;;;;;33.42;22.23;;;3.90;67.50;;;;;;4723178;29;114809;-83
2023/04/07 09:22:37;;;;;;;33.38;22.08;;;3.90;67.50;;;;;;4691413;29;115365;-83
2023/04/07 09:25:19;;;;;;;32.90;21.30;;;4.00;67.40;;;;;;4692264;29;115358;-82
2023/04/07 09:27:53;;;;;;;32.70;22.27;;;4.10;67.20;;;;;;4693038;29;114667;-82
2023/04/07 09:30:21;;;;;;;34.70;22.65;;;4.10;67.10;;;;;;4722589;29;114688;-82
2023/04/07 09:32:48;;;;;;;32.95;21.35;;;4.10;66.90;;;;;;4706324;29;116638;-82
2023/04/07 09:35:15;;;;;;;36.67;23.77;;;4.10;66.90;;;;;;4692048;29;114718;-82
2023/04/07 09:37:43;;;;;;;35.17;22.73;;;4.10;67.00;;;;;;4707070;29;114651;-82
2023/04/07 09:40:25;;;;;;;33.83;23.48;;;4.00;66.80;;;;;;4702212;29;114557;-81
2023/04/07 09:42:53;;;;;;;34.05;22.70;;;4.00;66.80;;;;;;4705667;29;115554;-82
2023/04/07 09:45:25;;;;;;;35.05;23.65;;;3.90;67.00;;;;;;4705813;29;114673;-82
2023/04/07 09:48:24;;;;;;;35.08;22.40;;;3.90;67.30;;;;;;4694007;29;114712;-81
2023/04/07 09:50:52;;;;;;;34.03;22.65;;;4.00;67.20;;;;;;4722448;29;114745;-82
2023/04/07 09:53:21;;;;;;;33.42;22.45;;;3.90;66.90;;;;;;4663803;29;118511;-82
2023/04/07 09:55:49;;;;;;;35.65;22.58;;;3.90;67.10;;;;;;4708309;29;114636;-82
2023/04/07 09:58:17;;;;;;;32.50;21.00;;;3.90;67.10;;;;;;4693876;29;114994;-82
2023/04/07 10:00:45;;;;;;;29.73;20.35;;;3.90;67.20;;;;;;4693300;29;114492;-82
2023/04/07 10:03:13;;;;;;;30.60;20.33;;;4.00;67.10;;;;;;4723377;29;115156;-81
2023/04/07 10:05:42;;;;;;;31.75;20.92;;;4.00;67.00;;;;;;4707041;29;115362;-82
2023/04/07 10:08:11;;;;;;;30.45;20.10;;;3.90;67.00;;;;;;4707305;29;114688;-82
2023/04/07 10:10:41;;;;;;;32.58;21.88;;;4.00;67.00;;;;;;4726713;29;114691;-82
2023/04/07 10:13:09;;;;;;;30.38;21.00;;;4.00;67.10;;;;;;4716786;29;118543;-81
2023/04/07 10:15:36;;;;;;;29.80;20.08;;;3.90;66.90;;;;;;4711844;29;114334;-82
2023/04/07 10:18:05;;;;;;;32.75;22.02;;;3.90;66.90;;;;;;4710496;29;114523;-82
2023/04/07 10:20:32;;;;;;;30.70;20.92;;;3.90;66.80;;;;;;4710136;29;114786;-81
2023/04/07 10:23:21;;;;;;;31.05;20.63;;;3.80;67.00;;;;;;4724581;29;118169;-82
2023/04/07 10:25:51;;;;;;;31.00;19.88;;;3.80;67.10;;;;;;4695184;29;115437;-82
2023/04/07 10:28:18;;;;;;;29.13;18.92;;;3.80;67.20;;;;;;4710441;29;114476;-81
2023/04/07 10:30:46;;;;;;;29.73;20.52;;;3.80;67.20;;;;;;4681064;29;114742;-82
2023/04/07 10:33:14;;;;;;;35.78;21.85;;;3.70;67.20;;;;;;4694084;29;115350;-81
2023/04/07 10:36:05;;;;;;;31.13;19.73;;;3.70;67.30;;;;;;4694683;29;114909;-81
2023/04/07 10:38:35;;;;;;;27.33;19.63;;;3.80;67.40;;;;;;4724523;29;114924;-81
2023/04/07 10:41:35;;;;;;;27.70;19.98;;;3.70;67.40;;;;;;4725499;29;114819;-81
2023/04/07 10:44:06;;;;;;;31.75;21.67;;;3.80;67.60;;;;;;4719489;29;115524;-82
2023/04/07 10:46:47;;;;;;;30.67;20.38;;;3.70;67.70;;;;;;4724731;29;116899;-82
2023/04/07 10:49:15;;;;;;;28.42;20.42;;;3.90;67.70;;;;;;4724769;29;114833;-82
2023/04/07 10:52:11;;;;;;;30.73;19.95;;;3.80;67.50;;;;;;4710087;29;114513;-82
2023/04/07 10:54:39;;;;;;;28.33;19.57;;;3.90;67.60;;;;;;4696148;29;115274;-82
2023/04/07 10:57:16;;;;;;;27.80;19.08;;;3.90;67.40;;;;;;4680993;29;115097;-81
2023/04/07 11:00:08;;;;;;;25.83;18.27;;;4.00;67.30;;;;;;4725420;29;114762;-82
2023/04/07 11:02:38;;;;;;;26.63;18.35;;;4.10;67.30;;;;;;4698135;29;114585;-82
2023/04/07 11:05:06;;;;;;;28.50;19.75;;;4.10;67.30;;;;;;4708839;29;115272;-82
2023/04/07 11:07:45;;;;;;;27.77;20.52;;;4.10;67.30;;;;;;4724766;29;114720;-82
2023/04/07 11:10:14;;;;;;;27.98;19.42;;;4.20;67.30;;;;;;4710290;29;114418;-82
2023/04/07 11:12:42;;;;;;;28.40;20.10;;;4.10;67.30;;;;;;4680949;29;115300;-82
2023/04/07 11:15:18;;;;;;;28.25;20.65;;;4.20;67.20;;;;;;4725857;29;115677;-82
2023/04/07 11:18:15;;;;;;;31.17;23.00;;;4.10;67.30;;;;;;4725319;29;114676;-83
2023/04/07 11:20:57;;;;;;;32.80;22.63;;;4.10;67.30;;;;;;4693116;29;114918;-82
2023/04/07 11:23:26;;;;;;;36.05;24.40;;;4.10;67.50;;;;;;4679224;29;114463;-83
2023/04/07 11:26:02;;;;;;;39.42;28.13;;;4.10;67.40;;;;;;4723483;29;115414;-82
2023/04/07 11:28:30;;;;;;;38.60;27.10;;;4.10;67.60;;;;;;4709615;29;114744;-82
2023/04/07 11:30:58;;;;;;;35.00;24.65;;;4.10;67.50;;;;;;4695230;29;114849;-82
2023/04/07 11:33:28;;;;;;;36.92;25.85;;;4.10;67.50;;;;;;4694828;29;114510;-82
2023/04/07 11:35:58;;;;;;;35.47;25.55;;;4.10;67.60;;;;;;4709043;29;115227;-82
2023/04/07 11:38:37;;;;;;;34.53;24.67;;;4.20;67.60;;;;;;4708795;29;114759;-82
2023/04/07 11:41:13;;;;;;;36.67;25.42;;;4.10;67.50;;;;;;4704302;29;114648;-82
2023/04/07 11:43:40;;;;;;;33.15;24.35;;;4.20;67.60;;;;;;4708528;29;114587;-83
2023/04/07 11:46:14;;;;;;;31.98;22.83;;;4.20;67.40;;;;;;4680339;29;115874;-83
2023/04/07 11:48:43;;;;;;;27.58;20.38;;;4.20;67.20;;;;;;4679608;29;114624;-82
2023/04/07 11:51:22;;;;;;;33.28;22.60;;;4.20;67.10;;;;;;4694094;29;114495;-83
2023/04/07 11:53:56;;;;;;;34.88;26.67;;;4.30;67.10;;;;;;4723867;29;114550;-83
2023/04/07 11:56:23;;;;;;;38.90;26.90;;;4.30;67.00;;;;;;4724051;29;115297;-83
2023/04/07 11:58:52;;;;;;;37.30;26.55;;;4.20;67.00;;;;;;4707671;29;114923;-83
2023/04/07 12:01:19;;;;;;;30.80;23.52;;;4.20;67.10;;;;;;4709369;29;115707;-83
2023/04/07 12:03:58;;;;;;;32.65;24.30;;;4.20;67.20;;;;;;4725560;29;114481;-83
2023/04/07 12:06:37;;;;;;;33.65;24.15;;;4.30;67.40;;;;;;4711824;29;115184;-83
2023/04/07 12:09:05;;;;;;;29.30;23.17;;;4.30;67.60;;;;;;4728574;29;114388;-83
2023/04/07 12:11:32;;;;;;;31.45;23.77;;;4.30;67.30;;;;;;4696354;29;114559;-83
2023/04/07 12:14:00;;;;;;;29.23;22.73;;;4.30;67.50;;;;;;4725934;29;115860;-83
2023/04/07 12:16:27;;;;;;;28.70;21.98;;;4.30;67.50;;;;;;4726502;29;115361;-82
2023/04/07 12:18:56;;;;;;;30.65;22.67;;;4.30;67.50;;;;;;4727020;29;114714;-83
2023/04/07 12:21:25;;;;;;;32.63;23.27;;;4.30;67.70;;;;;;4728793;29;114428;-83
2023/04/07 12:23:54;;;;;;;33.45;23.13;;;4.30;67.90;;;;;;4697437;29;114468;-83
2023/04/07 12:26:21;;;;;;;30.38;23.45;;;4.30;67.80;;;;;;4727617;29;116652;-83
2023/04/07 12:28:49;;;;;;;33.13;24.08;;;4.30;67.80;;;;;;4712555;29;114899;-84
2023/04/07 12:31:17;;;;;;;31.10;22.92;;;4.30;67.90;;;;;;4728616;29;116385;-82
2023/04/07 12:33:44;;;;;;;33.28;24.70;;;4.30;67.90;;;;;;4729129;29;114846;-83
2023/04/07 12:36:12;;;;;;;34.13;24.75;;;4.20;68.10;;;;;;4711663;29;118081;-83
2023/04/07 12:38:39;;;;;;;30.40;24.20;;;4.30;68.30;;;;;;4727573;29;114744;-83
2023/04/07 12:41:07;;;;;;;30.02;23.52;;;4.30;68.20;;;;;;4709985;29;114584;-83
2023/04/07 12:43:34;;;;;;;31.15;23.65;;;4.40;68.30;;;;;;4726651;29;114641;-82
2023/04/07 12:46:02;;;;;;;32.55;24.73;;;4.40;68.30;;;;;;4709026;29;116562;-83